Terminal Aerodrome Forecast
Issued by NWS Kansas City/Pleasant Hill, MO

Home | Current Version | Previous Version | Text Only | Print | Product List | Glossary On
Versions: 1 2 3 4 5 6 7 8 9 10 11 12 13 14 15 16 17 18 19 20 21 22 23 24 25 26
000
FTUS43 KEAX 242336
TAFMCI
TAF
KMCI 242336Z 2500/2524 19006KT P6SM SCT130
     FM250600 17009KT P6SM -SHRA VCTS SCT060CB OVC090
      TEMPO 2509/2512 3SM TSRA BKN025CB
     FM251400 16011KT P6SM VCSH BKN010
     FM251900 18011KT P6SM VCSH BKN035=

USA.gov is the U.S. government's official web portal to all federal, state and local government web resources and services.